sensor_id;sensor_type;location;lat;lon;timestamp;pressure;altitude;pressure_sealevel;temperature;humidity
25869;BME280;13688;53.154;18.136;2022-11-04T00:04:21;100459.28;;;6.64;83.46
25869;BME280;13688;53.154;18.136;2022-11-04T00:09:44;100452.80;;;6.68;83.26
25869;BME280;13688;53.154;18.136;2022-11-04T00:15:06;100443.08;;;6.67;83.22
25869;BME280;13688;53.154;18.136;2022-11-04T00:20:46;100445.43;;;6.72;83.24
25869;BME280;13688;53.154;18.136;2022-11-04T00:26:28;100442.36;;;6.78;83.06
25869;BME280;13688;53.154;18.136;2022-11-04T00:32:09;100434.88;;;6.83;82.84
25869;BME280;13688;53.154;18.136;2022-11-04T00:37:49;100432.77;;;6.88;82.52
25869;BME280;13688;53.154;18.136;2022-11-04T00:43:11;100427.32;;;6.89;82.45
25869;BME280;13688;53.154;18.136;2022-11-04T00:48:33;100418.97;;;6.94;82.39
25869;BME280;13688;53.154;18.136;2022-11-04T00:53:56;100418.12;;;6.94;82.36
25869;BME280;13688;53.154;18.136;2022-11-04T00:59:18;100415.45;;;6.94;82.44
25869;BME280;13688;53.154;18.136;2022-11-04T01:04:41;100415.16;;;6.98;82.46
25869;BME280;13688;53.154;18.136;2022-11-04T01:10:03;100400.08;;;6.97;82.57
25869;BME280;13688;53.154;18.136;2022-11-04T01:15:26;100398.38;;;6.96;82.60
25869;BME280;13688;53.154;18.136;2022-11-04T01:20:48;100384.89;;;6.98;82.75
25869;BME280;13688;53.154;18.136;2022-11-04T01:26:15;100386.72;;;6.97;82.67
25869;BME280;13688;53.154;18.136;2022-11-04T01:31:40;100373.23;;;6.99;82.94
25869;BME280;13688;53.154;18.136;2022-11-04T01:37:02;100370.34;;;7.02;82.94
25869;BME280;13688;53.154;18.136;2022-11-04T01:42:26;100369.72;;;7.11;82.84
25869;BME280;13688;53.154;18.136;2022-11-04T01:48:09;100364.70;;;7.19;82.62
25869;BME280;13688;53.154;18.136;2022-11-04T01:53:32;100357.31;;;7.23;82.34
25869;BME280;13688;53.154;18.136;2022-11-04T01:58:51;100290.16;;;7.02;81.94
25869;BME280;13688;53.154;18.136;2022-11-04T02:04:15;100290.16;;;7.02;81.94
25869;BME280;13688;53.154;18.136;2022-11-04T02:09:40;100316.46;;;7.21;81.87
25869;BME280;13688;53.154;18.136;2022-11-04T02:15:03;100310.38;;;7.18;81.94
25869;BME280;13688;53.154;18.136;2022-11-04T02:26:40;100307.38;;;7.10;82.28
25869;BME280;13688;53.154;18.136;2022-11-04T02:32:11;100282.80;;;7.05;82.72
25869;BME280;13688;53.154;18.136;2022-11-04T02:37:49;100280.20;;;7.04;83.09
25869;BME280;13688;53.154;18.136;2022-11-04T02:43:36;100271.33;;;7.03;83.33
25869;BME280;13688;53.154;18.136;2022-11-04T02:55:06;100267.82;;;7.15;83.85
25869;BME280;13688;53.154;18.136;2022-11-04T03:00:30;100255.95;;;7.07;83.58
25869;BME280;13688;53.154;18.136;2022-11-04T03:05:55;100258.63;;;7.07;83.44
25869;BME280;13688;53.154;18.136;2022-11-04T03:11:22;100256.47;;;7.12;83.35
25869;BME280;13688;53.154;18.136;2022-11-04T03:16:50;100252.94;;;7.11;83.16
25869;BME280;13688;53.154;18.136;2022-11-04T03:22:16;100238.95;;;7.08;83.30
25869;BME280;13688;53.154;18.136;2022-11-04T03:27:54;100233.91;;;7.03;83.59
25869;BME280;13688;53.154;18.136;2022-11-04T03:33:49;100232.29;;;7.13;83.69
25869;BME280;13688;53.154;18.136;2022-11-04T03:39:04;100231.86;;;7.20;83.37
25869;BME280;13688;53.154;18.136;2022-11-04T03:44:26;100228.53;;;7.29;83.05
25869;BME280;13688;53.154;18.136;2022-11-04T03:49:58;100234.07;;;7.38;82.79
25869;BME280;13688;53.154;18.136;2022-11-04T03:55:34;100228.05;;;7.48;82.28
25869;BME280;13688;53.154;18.136;2022-11-04T04:01:02;100229.45;;;7.53;81.76
25869;BME280;13688;53.154;18.136;2022-11-04T04:06:33;100229.33;;;7.55;81.47
25869;BME280;13688;53.154;18.136;2022-11-04T04:12:15;100222.16;;;7.55;81.40
25869;BME280;13688;53.154;18.136;2022-11-04T04:17:51;100221.07;;;7.58;81.40
25869;BME280;13688;53.154;18.136;2022-11-04T04:23:17;100208.95;;;7.65;81.20
25869;BME280;13688;53.154;18.136;2022-11-04T04:29:00;100210.30;;;7.70;80.88
25869;BME280;13688;53.154;18.136;2022-11-04T04:34:26;100201.55;;;7.68;80.80
25869;BME280;13688;53.154;18.136;2022-11-04T04:39:58;100200.81;;;7.66;80.73
25869;BME280;13688;53.154;18.136;2022-11-04T04:45:37;100199.13;;;7.53;80.80
25869;BME280;13688;53.154;18.136;2022-11-04T04:51:02;100204.88;;;7.35;81.35
25869;BME280;13688;53.154;18.136;2022-11-04T04:56:25;100190.05;;;7.18;82.39
25869;BME280;13688;53.154;18.136;2022-11-04T05:01:47;100185.02;;;7.14;83.00
25869;BME280;13688;53.154;18.136;2022-11-04T05:07:10;100187.50;;;7.04;83.55
25869;BME280;13688;53.154;18.136;2022-11-04T05:12:33;100180.67;;;7.00;83.98
25869;BME280;13688;53.154;18.136;2022-11-04T05:18:14;100187.30;;;6.95;84.27
25869;BME280;13688;53.154;18.136;2022-11-04T05:23:37;100185.08;;;6.88;84.88
25869;BME280;13688;53.154;18.136;2022-11-04T05:28:59;100187.76;;;6.88;85.26
25869;BME280;13688;53.154;18.136;2022-11-04T05:34:23;100168.82;;;6.92;85.38
25869;BME280;13688;53.154;18.136;2022-11-04T05:39:45;100170.33;;;6.96;85.47
25869;BME280;13688;53.154;18.136;2022-11-04T05:45:08;100187.07;;;7.10;85.39
25869;BME280;13688;53.154;18.136;2022-11-04T05:50:31;100195.86;;;7.00;85.02
25869;BME280;13688;53.154;18.136;2022-11-04T05:55:56;100190.20;;;6.92;85.25
25869;BME280;13688;53.154;18.136;2022-11-04T06:01:30;100192.90;;;6.79;85.41
25869;BME280;13688;53.154;18.136;2022-11-04T06:06:54;100187.45;;;6.68;86.25
25869;BME280;13688;53.154;18.136;2022-11-04T06:12:18;100191.09;;;6.67;86.94
25869;BME280;13688;53.154;18.136;2022-11-04T06:17:40;100181.34;;;6.66;87.54
25869;BME280;13688;53.154;18.136;2022-11-04T06:23:04;100184.13;;;6.64;87.78
25869;BME280;13688;53.154;18.136;2022-11-04T06:28:27;100187.88;;;6.62;88.06
25869;BME280;13688;53.154;18.136;2022-11-04T06:33:50;100196.00;;;6.60;88.43
25869;BME280;13688;53.154;18.136;2022-11-04T06:39:12;100193.75;;;6.79;88.67
25869;BME280;13688;53.154;18.136;2022-11-04T06:44:34;100188.58;;;7.02;88.18
25869;BME280;13688;53.154;18.136;2022-11-04T06:49:56;100189.08;;;7.20;86.93
25869;BME280;13688;53.154;18.136;2022-11-04T06:55:19;100195.36;;;7.31;85.83
25869;BME280;13688;53.154;18.136;2022-11-04T07:00:42;100194.57;;;7.42;84.97
25869;BME280;13688;53.154;18.136;2022-11-04T07:06:11;100201.08;;;7.51;84.23
25869;BME280;13688;53.154;18.136;2022-11-04T07:11:36;100209.39;;;7.59;83.59
25869;BME280;13688;53.154;18.136;2022-11-04T07:16:58;100207.87;;;7.67;83.17
25869;BME280;13688;53.154;18.136;2022-11-04T07:22:20;100206.45;;;7.74;82.55
25869;BME280;13688;53.154;18.136;2022-11-04T07:27:42;100210.59;;;7.79;82.23
25869;BME280;13688;53.154;18.136;2022-11-04T07:33:06;100206.39;;;7.87;82.13
25869;BME280;13688;53.154;18.136;2022-11-04T07:38:30;100194.75;;;7.99;81.67
25869;BME280;13688;53.154;18.136;2022-11-04T07:43:57;100200.27;;;8.09;81.27
25869;BME280;13688;53.154;18.136;2022-11-04T07:49:20;100203.70;;;8.11;80.96
25869;BME280;13688;53.154;18.136;2022-11-04T07:54:42;100201.27;;;8.19;80.77
25869;BME280;13688;53.154;18.136;2022-11-04T08:00:05;100199.50;;;8.31;80.48
25869;BME280;13688;53.154;18.136;2022-11-04T08:05:28;100196.37;;;8.37;79.93
25869;BME280;13688;53.154;18.136;2022-11-04T08:10:51;100197.98;;;8.40;79.70
25869;BME280;13688;53.154;18.136;2022-11-04T08:16:20;100191.41;;;8.44;79.61
25869;BME280;13688;53.154;18.136;2022-11-04T08:21:43;100188.34;;;8.48;79.57
25869;BME280;13688;53.154;18.136;2022-11-04T08:27:05;100179.84;;;8.54;79.41
25869;BME280;13688;53.154;18.136;2022-11-04T08:32:28;100180.58;;;8.56;79.01
25869;BME280;13688;53.154;18.136;2022-11-04T08:37:50;100191.68;;;8.63;78.68
25869;BME280;13688;53.154;18.136;2022-11-04T08:43:12;100192.28;;;8.67;78.46
25869;BME280;13688;53.154;18.136;2022-11-04T08:48:36;100190.58;;;8.66;78.21
25869;BME280;13688;53.154;18.136;2022-11-04T08:54:00;100183.39;;;8.66;78.08
25869;BME280;13688;53.154;18.136;2022-11-04T08:59:22;100190.45;;;8.67;78.07
25869;BME280;13688;53.154;18.136;2022-11-04T09:04:45;100186.19;;;8.65;77.92
25869;BME280;13688;53.154;18.136;2022-11-04T09:10:07;100178.41;;;8.73;77.93
25869;BME280;13688;53.154;18.136;2022-11-04T09:15:30;100180.63;;;8.79;77.72
25869;BME280;13688;53.154;18.136;2022-11-04T09:20:52;100169.52;;;8.83;77.39
25869;BME280;13688;53.154;18.136;2022-11-04T09:26:17;100166.09;;;9.04;77.12
25869;BME280;13688;53.154;18.136;2022-11-04T09:31:39;100170.03;;;9.65;75.62
25869;BME280;13688;53.154;18.136;2022-11-04T09:37:02;100165.38;;;10.20;73.18
25869;BME280;13688;53.154;18.136;2022-11-04T09:48:03;100149.17;;;10.43;70.47
25869;BME280;13688;53.154;18.136;2022-11-04T09:53:41;100159.16;;;10.20;71.07
25869;BME280;13688;53.154;18.136;2022-11-04T09:59:08;100149.52;;;9.96;71.18
25869;BME280;13688;53.154;18.136;2022-11-04T10:21:48;100134.38;;;9.63;73.27
25869;BME280;13688;53.154;18.136;2022-11-04T10:27:23;100130.62;;;9.55;73.73
25869;BME280;13688;53.154;18.136;2022-11-04T10:33:19;100129.95;;;9.73;74.25
25869;BME280;13688;53.154;18.136;2022-11-04T10:38:55;100130.52;;;9.56;74.20
25869;BME280;13688;53.154;18.136;2022-11-04T10:44:19;100118.80;;;9.57;74.61
25869;BME280;13688;53.154;18.136;2022-11-04T10:55:37;100110.98;;;9.54;74.94
25869;BME280;13688;53.154;18.136;2022-11-04T11:01:32;100111.28;;;9.72;75.26
25869;BME280;13688;53.154;18.136;2022-11-04T11:06:56;100098.80;;;9.82;75.59
25869;BME280;13688;53.154;18.136;2022-11-04T11:12:29;100091.01;;;9.79;74.85
25869;BME280;13688;53.154;18.136;2022-11-04T11:23:44;100085.16;;;9.74;74.80
25869;BME280;13688;53.154;18.136;2022-11-04T11:29:09;100078.44;;;9.80;74.67
25869;BME280;13688;53.154;18.136;2022-11-04T11:34:40;100084.36;;;9.62;74.38
25869;BME280;13688;53.154;18.136;2022-11-04T11:40:03;100089.78;;;9.51;74.85
25869;BME280;13688;53.154;18.136;2022-11-04T11:45:27;100087.09;;;9.51;75.26
25869;BME280;13688;53.154;18.136;2022-11-04T11:50:54;100086.59;;;9.57;75.54
25869;BME280;13688;53.154;18.136;2022-11-04T11:56:22;100078.20;;;9.51;75.83
25869;BME280;13688;53.154;18.136;2022-11-04T12:01:51;100090.28;;;9.45;76.21
25869;BME280;13688;53.154;18.136;2022-11-04T12:07:23;100088.13;;;9.39;76.50
25869;BME280;13688;53.154;18.136;2022-11-04T12:13:26;100091.08;;;9.25;77.02
25869;BME280;13688;53.154;18.136;2022-11-04T12:42:31;100075.78;;;9.48;77.29
25869;BME280;13688;53.154;18.136;2022-11-04T12:47:59;100073.73;;;9.40;77.09
25869;BME280;13688;53.154;18.136;2022-11-04T12:54:00;100071.94;;;9.29;77.21
25869;BME280;13688;53.154;18.136;2022-11-04T12:59:40;100060.40;;;9.17;77.54
25869;BME280;13688;53.154;18.136;2022-11-04T13:11:10;100060.53;;;9.05;78.16
25869;BME280;13688;53.154;18.136;2022-11-04T13:16:39;100057.72;;;9.06;78.48
25869;BME280;13688;53.154;18.136;2022-11-04T13:22:06;100049.67;;;9.06;78.75
25869;BME280;13688;53.154;18.136;2022-11-04T13:27:37;100041.89;;;9.03;78.76
25869;BME280;13688;53.154;18.136;2022-11-04T13:39:15;100025.44;;;9.08;78.83
25869;BME280;13688;53.154;18.136;2022-11-04T13:44:47;100022.23;;;9.14;78.89
25869;BME280;13688;53.154;18.136;2022-11-04T13:55:54;100036.58;;;9.24;78.47
25869;BME280;13688;53.154;18.136;2022-11-04T14:06:57;100059.81;;;9.03;79.92
25869;BME280;13688;53.154;18.136;2022-11-04T14:12:33;100053.98;;;8.98;80.58
25869;BME280;13688;53.154;18.136;2022-11-04T14:17:57;100057.16;;;8.92;81.14
25869;BME280;13688;53.154;18.136;2022-11-04T14:23:23;100055.81;;;8.86;81.59
25869;BME280;13688;53.154;18.136;2022-11-04T14:28:59;100060.59;;;8.82;81.88
25869;BME280;13688;53.154;18.136;2022-11-04T14:34:29;100055.36;;;8.81;82.03
25869;BME280;13688;53.154;18.136;2022-11-04T14:39:56;100056.34;;;8.80;82.11
25869;BME280;13688;53.154;18.136;2022-11-04T14:45:28;100071.56;;;8.79;82.00
25869;BME280;13688;53.154;18.136;2022-11-04T14:50:51;100078.00;;;8.77;81.97
25869;BME280;13688;53.154;18.136;2022-11-04T14:56:19;100069.24;;;8.75;81.98
25869;BME280;13688;53.154;18.136;2022-11-04T15:01:43;100066.69;;;8.73;81.93
25869;BME280;13688;53.154;18.136;2022-11-04T15:07:19;100078.26;;;8.74;81.99
25869;BME280;13688;53.154;18.136;2022-11-04T15:12:42;100065.45;;;8.77;81.86
25869;BME280;13688;53.154;18.136;2022-11-04T15:18:12;100069.24;;;8.75;81.90
25869;BME280;13688;53.154;18.136;2022-11-04T15:23:54;100065.71;;;8.74;82.09
25869;BME280;13688;53.154;18.136;2022-11-04T15:29:18;100075.33;;;8.77;82.04
25869;BME280;13688;53.154;18.136;2022-11-04T15:34:42;100065.45;;;8.77;81.99
25869;BME280;13688;53.154;18.136;2022-11-04T15:40:05;100067.19;;;8.78;82.03
25869;BME280;13688;53.154;18.136;2022-11-04T15:51:20;100071.80;;;8.76;82.42
25869;BME280;13688;53.154;18.136;2022-11-04T15:56:47;100075.33;;;8.77;82.90
25869;BME280;13688;53.154;18.136;2022-11-04T16:02:21;100067.28;;;8.77;83.06
25869;BME280;13688;53.154;18.136;2022-11-04T16:07:53;100064.60;;;8.77;83.44
25869;BME280;13688;53.154;18.136;2022-11-04T16:13:35;100067.28;;;8.77;83.69
25869;BME280;13688;53.154;18.136;2022-11-04T16:18:59;100063.03;;;8.74;84.14
25869;BME280;13688;53.154;18.136;2022-11-04T16:24:40;100067.41;;;8.75;84.50
25869;BME280;13688;53.154;18.136;2022-11-04T16:30:07;100065.58;;;8.76;84.76
25869;BME280;13688;53.154;18.136;2022-11-04T16:35:32;100070.94;;;8.76;84.96
25869;BME280;13688;53.154;18.136;2022-11-04T16:40:55;100072.64;;;8.77;85.13
25869;BME280;13688;53.154;18.136;2022-11-04T16:46:18;100076.80;;;8.81;85.47
25869;BME280;13688;53.154;18.136;2022-11-04T16:51:41;100075.23;;;8.78;85.54
25869;BME280;13688;53.154;18.136;2022-11-04T16:57:04;100084.84;;;8.81;85.64
25869;BME280;13688;53.154;18.136;2022-11-04T17:02:36;100082.88;;;8.83;85.96
25869;BME280;13688;53.154;18.136;2022-11-04T17:07:56;100085.44;;;8.84;85.95
25869;BME280;13688;53.154;18.136;2022-11-04T17:13:18;100080.08;;;8.84;85.75
25869;BME280;13688;53.154;18.136;2022-11-04T17:18:46;100072.16;;;8.83;85.80
25869;BME280;13688;53.154;18.136;2022-11-04T17:24:09;100077.52;;;8.83;85.94
25869;BME280;13688;53.154;18.136;2022-11-04T17:29:31;100080.08;;;8.84;86.12
25869;BME280;13688;53.154;18.136;2022-11-04T17:34:53;100070.20;;;8.85;86.10
25869;BME280;13688;53.154;18.136;2022-11-04T17:40:18;100071.18;;;8.84;86.10
25869;BME280;13688;53.154;18.136;2022-11-04T17:45:40;100063.86;;;8.86;86.07
25869;BME280;13688;53.154;18.136;2022-11-04T17:51:05;100062.03;;;8.86;86.06
25869;BME280;13688;53.154;18.136;2022-11-04T17:56:29;100058.37;;;8.87;86.00
25869;BME280;13688;53.154;18.136;2022-11-04T18:01:58;100052.16;;;8.87;86.05
25869;BME280;13688;53.154;18.136;2022-11-04T18:07:20;100054.84;;;8.87;86.15
25869;BME280;13688;53.154;18.136;2022-11-04T18:12:43;100048.62;;;8.86;86.28
25869;BME280;13688;53.154;18.136;2022-11-04T18:18:05;100045.84;;;8.88;86.33
25869;BME280;13688;53.154;18.136;2022-11-04T18:23:28;100043.03;;;8.89;86.31
25869;BME280;13688;53.154;18.136;2022-11-04T18:28:51;100035.84;;;8.90;86.33
25869;BME280;13688;53.154;18.136;2022-11-04T18:34:15;100034.02;;;8.91;86.37
25869;BME280;13688;53.154;18.136;2022-11-04T18:39:38;100035.58;;;8.93;86.37
25869;BME280;13688;53.154;18.136;2022-11-04T18:45:01;100043.36;;;8.96;86.20
25869;BME280;13688;53.154;18.136;2022-11-04T18:50:23;100045.06;;;8.97;86.04
25869;BME280;13688;53.154;18.136;2022-11-04T18:55:46;100035.22;;;8.98;85.99
25869;BME280;13688;53.154;18.136;2022-11-04T19:06:46;100044.97;;;8.99;85.94
25869;BME280;13688;53.154;18.136;2022-11-04T19:12:09;100034.11;;;9.00;85.84
25869;BME280;13688;53.154;18.136;2022-11-04T19:17:49;100053.59;;;9.02;85.70
25869;BME280;13688;53.154;18.136;2022-11-04T19:23:11;100056.28;;;9.02;85.48
25869;BME280;13688;53.154;18.136;2022-11-04T19:28:38;100051.51;;;9.06;85.34
25869;BME280;13688;53.154;18.136;2022-11-04T19:34:02;100048.72;;;9.07;85.23
25869;BME280;13688;53.154;18.136;2022-11-04T19:39:24;100050.30;;;9.10;84.93
25869;BME280;13688;53.154;18.136;2022-11-04T19:44:47;100047.35;;;9.13;84.70
25869;BME280;13688;53.154;18.136;2022-11-04T19:50:09;100048.06;;;9.15;84.33
25869;BME280;13688;53.154;18.136;2022-11-04T19:55:31;100047.22;;;9.14;83.99
25869;BME280;13688;53.154;18.136;2022-11-04T20:00:54;100039.30;;;9.13;83.85
25869;BME280;13688;53.154;18.136;2022-11-04T20:06:22;100041.00;;;9.14;84.01
25869;BME280;13688;53.154;18.136;2022-11-04T20:11:45;100041.40;;;9.09;84.52
25869;BME280;13688;53.154;18.136;2022-11-04T20:17:26;100053.11;;;8.97;85.99
25869;BME280;13688;53.154;18.136;2022-11-04T20:22:48;100060.20;;;8.87;87.77
25869;BME280;13688;53.154;18.136;2022-11-04T20:28:11;100065.09;;;8.82;89.44
25869;BME280;13688;53.154;18.136;2022-11-04T20:33:34;100074.86;;;8.72;91.48
25869;BME280;13688;53.154;18.136;2022-11-04T20:39:06;100073.64;;;8.65;93.64
25869;BME280;13688;53.154;18.136;2022-11-04T20:44:27;100075.94;;;8.58;96.20
25869;BME280;13688;53.154;18.136;2022-11-04T20:49:52;100074.97;;;8.48;99.32
25869;BME280;13688;53.154;18.136;2022-11-04T20:55:15;100071.09;;;8.41;100.00
25869;BME280;13688;53.154;18.136;2022-11-04T21:00:37;100071.66;;;8.33;100.00
25869;BME280;13688;53.154;18.136;2022-11-04T21:06:01;100075.53;;;8.29;100.00
25869;BME280;13688;53.154;18.136;2022-11-04T21:11:24;100072.51;;;8.22;100.00
25869;BME280;13688;53.154;18.136;2022-11-04T21:16:48;100066.64;;;8.17;100.00
25869;BME280;13688;53.154;18.136;2022-11-04T21:22:11;100066.29;;;8.11;100.00
25869;BME280;13688;53.154;18.136;2022-11-04T21:27:33;100072.71;;;8.08;100.00
25869;BME280;13688;53.154;18.136;2022-11-04T21:32:56;100071.39;;;8.02;100.00
25869;BME280;13688;53.154;18.136;2022-11-04T21:38:19;100065.39;;;7.99;100.00
25869;BME280;13688;53.154;18.136;2022-11-04T21:43:42;100062.23;;;7.94;100.00
25869;BME280;13688;53.154;18.136;2022-11-04T21:49:07;100059.05;;;7.89;100.00
25869;BME280;13688;53.154;18.136;2022-11-04T21:54:31;100058.32;;;7.87;100.00
25869;BME280;13688;53.154;18.136;2022-11-04T21:59:54;100053.81;;;7.87;100.00
25869;BME280;13688;53.154;18.136;2022-11-04T22:05:16;100062.95;;;7.85;100.00
25869;BME280;13688;53.154;18.136;2022-11-04T22:10:40;100065.75;;;7.83;100.00
25869;BME280;13688;53.154;18.136;2022-11-04T22:16:20;100065.75;;;7.83;100.00
25869;BME280;13688;53.154;18.136;2022-11-04T22:21:43;100069.48;;;7.81;100.00
25869;BME280;13688;53.154;18.136;2022-11-04T22:27:05;100073.98;;;7.80;100.00
25869;BME280;13688;53.154;18.136;2022-11-04T22:32:28;100067.17;;;7.76;100.00
25869;BME280;13688;53.154;18.136;2022-11-04T22:37:50;100066.56;;;7.72;100.00
25869;BME280;13688;53.154;18.136;2022-11-04T22:43:13;100066.66;;;7.71;100.00
25869;BME280;13688;53.154;18.136;2022-11-04T22:48:35;100070.31;;;7.70;100.00
25869;BME280;13688;53.154;18.136;2022-11-04T22:53:59;100066.91;;;7.68;100.00
25869;BME280;13688;53.154;18.136;2022-11-04T22:59:21;100068.85;;;7.66;100.00
25869;BME280;13688;53.154;18.136;2022-11-04T23:04:44;100072.62;;;7.63;100.00
25869;BME280;13688;53.154;18.136;2022-11-04T23:10:07;100067.27;;;7.63;100.00
25869;BME280;13688;53.154;18.136;2022-11-04T23:15:47;100062.86;;;7.62;100.00
25869;BME280;13688;53.154;18.136;2022-11-04T23:21:27;100059.45;;;7.60;100.00
25869;BME280;13688;53.154;18.136;2022-11-04T23:27:07;100061.27;;;7.60;100.00
25869;BME280;13688;53.154;18.136;2022-11-04T23:32:48;100050.81;;;7.57;100.00
25869;BME280;13688;53.154;18.136;2022-11-04T23:38:12;100054.34;;;7.57;100.00
25869;BME280;13688;53.154;18.136;2022-11-04T23:43:36;100049.84;;;7.58;100.00
25869;BME280;13688;53.154;18.136;2022-11-04T23:48:58;100042.79;;;7.57;100.00
25869;BME280;13688;53.154;18.136;2022-11-04T23:54:46;100039.54;;;7.64;100.00
